Time;durP1;ratioP1;P1;durP2;ratioP2;P2;SDS_P1;SDS_P2;PMS_P1;PMS_P2;Temp;Humidity;BMP_temperature;BMP_pressure;BME280_temperature;BME280_humidity;BME280_pressure;Samples;Min_cycle;Max_cycle;Signal;HPM_P1;HPM_P2
2021/05/08 00:00:59;;;;;;;4.57;2.13;;;5.50;99.90;;;;;;12953631;22;20020;-47
2021/05/08 00:06:01;;;;;;;7.63;3.25;;;5.70;99.90;;;;;;12957341;22;20016;-47
2021/05/08 00:11:02;;;;;;;5.65;2.72;;;5.70;99.90;;;;;;12960317;22;20024;-47
2021/05/08 00:16:03;;;;;;;4.65;2.33;;;5.70;99.90;;;;;;12958086;22;20011;-47
2021/05/08 00:21:04;;;;;;;4.28;2.17;;;5.70;99.90;;;;;;12956687;22;20015;-47
2021/05/08 00:26:05;;;;;;;6.88;1.95;;;5.60;99.90;;;;;;12958868;22;20484;-47
2021/05/08 00:31:06;;;;;;;5.75;2.33;;;5.50;99.90;;;;;;12958964;22;20090;-47
2021/05/08 00:36:07;;;;;;;5.80;2.88;;;5.50;99.90;;;;;;12957493;22;20321;-47
2021/05/08 00:41:08;;;;;;;6.35;2.13;;;5.70;99.90;;;;;;12955169;22;20050;-47
2021/05/08 00:46:10;;;;;;;4.78;2.13;;;5.80;99.90;;;;;;12959356;22;20184;-47
2021/05/08 00:51:10;;;;;;;7.40;2.25;;;5.90;99.90;;;;;;12958367;22;20046;-47
2021/05/08 00:56:12;;;;;;;6.45;2.22;;;5.90;99.90;;;;;;12961411;22;20374;-47
2021/05/08 01:01:13;;;;;;;7.68;2.25;;;5.90;99.90;;;;;;12955930;22;20451;-47
2021/05/08 01:06:13;;;;;;;4.72;2.05;;;5.90;99.90;;;;;;12959222;22;20046;-47
2021/05/08 01:11:15;;;;;;;5.45;1.77;;;5.90;99.90;;;;;;12956304;22;20035;-47
2021/05/08 01:16:15;;;;;;;5.28;2.65;;;6.00;99.90;;;;;;12958281;22;20012;-47
2021/05/08 01:21:16;;;;;;;3.67;1.60;;;6.00;99.90;;;;;;12966840;22;20053;-47
2021/05/08 01:26:18;;;;;;;6.10;2.13;;;6.00;99.90;;;;;;12964990;22;20054;-47
2021/05/08 01:31:19;;;;;;;4.57;2.10;;;6.10;99.90;;;;;;12964858;22;20011;-47
2021/05/08 01:36:19;;;;;;;4.85;2.47;;;6.00;99.90;;;;;;12956709;22;20031;-47
2021/05/08 01:41:20;;;;;;;4.38;1.88;;;6.00;99.90;;;;;;12960519;22;20079;-47
2021/05/08 01:46:21;;;;;;;6.10;1.75;;;6.10;99.90;;;;;;12959498;22;20378;-47
2021/05/08 01:51:22;;;;;;;6.43;2.38;;;6.10;99.90;;;;;;12959463;22;20939;-47
2021/05/08 01:56:23;;;;;;;7.75;2.55;;;6.00;99.90;;;;;;12958773;22;20018;-47
2021/05/08 02:01:23;;;;;;;4.85;1.80;;;6.00;99.90;;;;;;12964107;22;20011;-47
2021/05/08 02:06:24;;;;;;;4.53;2.05;;;5.80;99.90;;;;;;12964896;22;20468;-47
2021/05/08 02:11:25;;;;;;;9.95;1.95;;;5.90;99.90;;;;;;12965834;22;20065;-47
2021/05/08 02:16:36;;;;;;;7.53;2.75;;;5.90;99.90;;;;;;12966275;22;20015;-47
2021/05/08 02:21:37;;;;;;;8.23;2.72;;;5.90;99.90;;;;;;12975974;22;20053;-47
2021/05/08 02:26:51;;;;;;;6.57;2.65;;;5.80;99.90;;;;;;12953154;22;20098;-47
2021/05/08 02:31:57;;;;;;;4.85;2.20;;;5.80;99.90;;;;;;12880138;22;20482;-47
2021/05/08 02:37:05;;;;;;;9.55;2.85;;;5.80;99.90;;;;;;12959788;22;20456;-47
2021/05/08 02:42:06;;;;;;;6.93;2.72;;;5.80;99.90;;;;;;12960227;22;20018;-47
2021/05/08 02:47:19;;;;;;;6.95;3.05;;;5.70;99.90;;;;;;12958847;22;20023;-47
2021/05/08 02:52:21;;;;;;;7.82;2.97;;;5.80;99.90;;;;;;12950161;22;20381;-47
2021/05/08 02:57:22;;;;;;;8.90;2.95;;;5.80;99.90;;;;;;12958399;22;20019;-47
2021/05/08 03:02:23;;;;;;;6.78;2.78;;;5.80;99.90;;;;;;12962129;22;20387;-47
2021/05/08 03:07:27;;;;;;;8.82;3.28;;;5.80;99.90;;;;;;12946838;22;20391;-47
2021/05/08 03:12:27;;;;;;;7.65;3.00;;;5.80;99.90;;;;;;12942786;22;20036;-47
2021/05/08 03:17:31;;;;;;;5.70;2.72;;;5.80;99.90;;;;;;12969879;22;20293;-47
2021/05/08 03:23:48;;;;;;;8.77;3.42;;;5.90;99.90;;;;;;12960839;22;20351;-47
2021/05/08 03:29:33;;;;;;;6.88;2.83;;;5.80;99.90;;;;;;12882764;22;20043;-47
2021/05/08 03:34:34;;;;;;;8.63;2.88;;;5.90;99.90;;;;;;12731564;23;20507;-47
2021/05/08 03:39:37;;;;;;;7.10;2.90;;;5.80;99.90;;;;;;12924533;22;20023;-47
2021/05/08 03:44:38;;;;;;;8.07;3.25;;;5.80;99.90;;;;;;12972462;22;20011;-47
2021/05/08 03:49:39;;;;;;;8.25;2.95;;;5.80;99.90;;;;;;12957066;22;20008;-47
2021/05/08 03:54:40;;;;;;;7.40;2.90;;;5.80;99.90;;;;;;12947180;22;20400;-47
2021/05/08 03:59:41;;;;;;;4.75;2.10;;;5.80;99.90;;;;;;12958781;22;20208;-47
2021/05/08 04:04:44;;;;;;;8.50;3.30;;;5.80;99.90;;;;;;12959508;22;20434;-47
2021/05/08 04:09:54;;;;;;;8.65;2.67;;;5.90;99.90;;;;;;12960355;22;20012;-47
2021/05/08 04:14:55;;;;;;;6.57;2.47;;;6.00;99.90;;;;;;12960973;22;20065;-47
2021/05/08 04:20:06;;;;;;;8.55;2.63;;;6.10;99.90;;;;;;12958181;22;20062;-47
2021/05/08 04:25:19;;;;;;;5.93;2.67;;;6.10;99.90;;;;;;12942567;22;20031;-47
2021/05/08 04:30:33;;;;;;;7.93;2.67;;;6.10;99.90;;;;;;12907362;22;20012;-46
2021/05/08 04:35:35;;;;;;;5.68;2.17;;;6.20;99.90;;;;;;12955678;22;20016;-47
2021/05/08 04:40:44;;;;;;;8.63;3.85;;;6.20;99.90;;;;;;12960903;22;20535;-47
2021/05/08 04:45:45;;;;;;;5.78;2.70;;;6.20;99.90;;;;;;12968985;22;20007;-47
2021/05/08 04:50:53;;;;;;;6.90;2.28;;;6.20;99.90;;;;;;12966930;22;20664;-47
2021/05/08 04:55:54;;;;;;;9.63;2.78;;;6.30;99.90;;;;;;12959146;22;20011;-47
2021/05/08 05:00:55;;;;;;;6.53;3.55;;;6.40;99.90;;;;;;12964878;22;20262;-47
2021/05/08 05:05:56;;;;;;;4.38;2.42;;;6.40;99.90;;;;;;12967089;22;20443;-47
2021/05/08 05:10:57;;;;;;;8.32;3.60;;;6.50;99.90;;;;;;12968034;22;20317;-47
2021/05/08 05:16:00;;;;;;;4.57;2.10;;;6.60;99.90;;;;;;12956548;22;20466;-47
2021/05/08 05:21:06;;;;;;;;;;;6.70;99.90;;;;;;12971413;22;20023;-47
2021/05/08 05:26:11;;;;;;;4.78;1.92;;;7.00;99.90;;;;;;12955473;22;20311;-47
2021/05/08 05:31:20;;;;;;;7.70;2.17;;;7.20;99.90;;;;;;12968331;22;20423;-47
2021/05/08 05:36:21;;;;;;;7.75;2.10;;;7.30;99.90;;;;;;12939067;22;20026;-47
2021/05/08 05:41:32;;;;;;;5.07;2.05;;;7.50;99.90;;;;;;12973286;22;20421;-47
2021/05/08 05:46:49;;;;;;;7.32;2.67;;;7.70;99.90;;;;;;12979152;22;20019;-47
2021/05/08 06:12:26;;;;;;;5.63;2.45;;;8.20;99.90;;;;;;12975579;22;20054;-47
2021/05/08 06:24:09;;;;;;;3.88;1.65;;;8.30;99.90;;;;;;13087986;22;20118;-83
2021/05/08 06:29:10;;;;;;;4.63;2.20;;;8.50;99.90;;;;;;13098500;22;20099;-83
2021/05/08 06:34:11;;;;;;;6.10;2.40;;;8.50;99.90;;;;;;13069203;22;20410;-83
2021/05/08 06:39:12;;;;;;;10.05;3.17;;;8.40;99.90;;;;;;13061026;22;20011;-84
2021/05/08 06:44:13;;;;;;;5.82;2.83;;;8.50;99.90;;;;;;13087111;22;20007;-82
2021/05/08 06:49:17;;;;;;;4.55;2.28;;;8.50;99.90;;;;;;13077658;22;20339;-82
2021/05/08 06:54:18;;;;;;;7.35;2.88;;;8.50;99.90;;;;;;13093781;22;20011;-82
2021/05/08 06:59:19;;;;;;;5.15;1.95;;;8.70;99.90;;;;;;13094010;22;20042;-82
2021/05/08 07:04:20;;;;;;;5.65;2.45;;;8.80;99.90;;;;;;13037914;22;20007;-82
2021/05/08 07:09:21;;;;;;;7.38;1.95;;;8.90;99.90;;;;;;13093122;22;20021;-82
2021/05/08 07:14:26;;;;;;;3.20;1.75;;;9.10;99.90;;;;;;13105388;22;19997;-82
2021/05/08 07:33:16;;;;;;;6.43;2.97;;;9.50;99.90;;;;;;12741369;23;20014;-84
2021/05/08 07:49:56;;;;;;;5.20;2.10;;;9.60;99.90;;;;;;13074765;22;20121;-47
2021/05/08 07:54:57;;;;;;;4.97;2.08;;;9.80;99.90;;;;;;13051302;22;20272;-47
2021/05/08 07:59:58;;;;;;;4.72;1.65;;;10.00;99.90;;;;;;13078863;22;20011;-46
2021/05/08 08:05:00;;;;;;;4.93;2.22;;;10.00;99.90;;;;;;13070150;22;20010;-47
2021/05/08 08:10:01;;;;;;;3.60;1.85;;;10.10;99.90;;;;;;13074580;22;20330;-48
2021/05/08 08:15:02;;;;;;;5.45;1.88;;;10.30;99.90;;;;;;13077455;22;20050;-47
2021/05/08 08:20:09;;;;;;;5.47;1.80;;;10.30;99.90;;;;;;13078950;22;20011;-47
2021/05/08 08:25:11;;;;;;;3.70;1.73;;;10.40;99.90;;;;;;13079532;22;20216;-47
2021/05/08 08:30:13;;;;;;;4.10;1.73;;;10.50;99.90;;;;;;13081505;22;20010;-47
2021/05/08 08:35:13;;;;;;;5.65;2.17;;;10.60;99.90;;;;;;13087875;22;20440;-47
2021/05/08 08:40:14;;;;;;;6.22;1.83;;;10.70;99.90;;;;;;13087413;22;20015;-47
2021/05/08 08:45:15;;;;;;;3.05;1.80;;;10.90;99.90;;;;;;13084897;22;20434;-47
2021/05/08 08:50:16;;;;;;;4.68;1.70;;;11.00;99.90;;;;;;13087356;22;20074;-47
2021/05/08 08:55:16;;;;;;;3.55;1.65;;;11.20;99.90;;;;;;13094258;22;20199;-47
2021/05/08 09:00:17;;;;;;;3.85;2.03;;;11.30;99.90;;;;;;13089077;22;20015;-47
2021/05/08 09:05:20;;;;;;;2.72;1.40;;;11.40;99.90;;;;;;13091082;22;20102;-47
2021/05/08 09:10:30;;;;;;;5.25;1.70;;;11.50;99.90;;;;;;13078275;22;20480;-47
2021/05/08 09:15:36;;;;;;;4.03;2.00;;;11.60;99.90;;;;;;13087424;22;20003;-47
2021/05/08 09:20:48;;;;;;;3.67;1.80;;;11.80;99.90;;;;;;13093374;22;20022;-47
2021/05/08 09:25:59;;;;;;;5.05;1.40;;;11.90;99.90;;;;;;13091317;22;20356;-48
2021/05/08 09:31:00;;;;;;;4.32;1.80;;;11.90;99.90;;;;;;13090973;22;20015;-48
2021/05/08 09:36:02;;;;;;;3.88;1.27;;;11.90;99.90;;;;;;13092345;22;20060;-47
2021/05/08 09:41:07;;;;;;;3.72;1.48;;;12.00;99.90;;;;;;13092023;22;20411;-47
2021/05/08 09:46:09;;;;;;;4.82;1.40;;;12.20;99.90;;;;;;13093265;22;20389;-47
2021/05/08 09:51:27;;;;;;;2.55;1.23;;;12.20;99.90;;;;;;13090531;22;20397;-47
2021/05/08 09:56:38;;;;;;;4.65;1.33;;;12.20;99.90;;;;;;13086273;22;20007;-47
2021/05/08 10:01:38;;;;;;;3.10;1.30;;;12.50;99.90;;;;;;13072655;22;20057;-47
2021/05/08 10:06:39;;;;;;;5.05;1.23;;;12.50;99.90;;;;;;13068957;22;20094;-47
2021/05/08 10:11:40;;;;;;;3.13;1.33;;;12.60;99.90;;;;;;13084000;22;20018;-47
2021/05/08 10:16:40;;;;;;;3.30;1.40;;;12.30;99.90;;;;;;13088167;22;20040;-47
2021/05/08 10:21:42;;;;;;;2.22;1.23;;;12.10;99.90;;;;;;13084826;22;20559;-47
2021/05/08 10:26:43;;;;;;;7.63;1.48;;;12.00;99.90;;;;;;13078239;22;20092;-47
2021/05/08 10:31:44;;;;;;;2.95;0.88;;;12.00;99.90;;;;;;13089217;22;20034;-47
2021/05/08 10:36:48;;;;;;;2.78;1.20;;;12.00;99.90;;;;;;13086773;22;20053;-47
2021/05/08 10:41:53;;;;;;;2.92;1.08;;;11.90;99.90;;;;;;13086441;22;20007;-47
2021/05/08 10:46:53;;;;;;;3.17;1.17;;;11.60;99.90;;;;;;13082054;22;20019;-47
2021/05/08 10:51:58;;;;;;;2.22;1.20;;;11.50;99.90;;;;;;13090497;22;20011;-47
2021/05/08 10:57:16;;;;;;;6.43;1.50;;;11.40;99.90;;;;;;13089034;22;20021;-47
2021/05/08 11:02:43;;;;;;;2.72;1.17;;;11.40;99.90;;;;;;13091816;22;20030;-47
2021/05/08 11:07:43;;;;;;;5.10;2.25;;;11.20;99.90;;;;;;13086657;22;20021;-47
2021/05/08 11:13:12;;;;;;;2.13;1.20;;;11.10;99.90;;;;;;13083437;22;20019;-47
2021/05/08 11:18:32;;;;;;;3.53;1.17;;;10.90;99.90;;;;;;13073458;22;20435;-47
2021/05/08 11:24:04;;;;;;;2.03;0.90;;;10.80;99.90;;;;;;13070766;22;20350;-48
2021/05/08 11:29:08;;;;;;;3.40;1.55;;;10.60;99.90;;;;;;13075903;22;20014;-48
2021/05/08 11:34:18;;;;;;;1.90;0.95;;;10.50;99.90;;;;;;13080145;22;20022;-48
2021/05/08 11:39:23;;;;;;;2.88;0.85;;;10.30;99.90;;;;;;13086455;22;20379;-48
2021/05/08 11:44:37;;;;;;;2.42;0.93;;;10.20;99.90;;;;;;13078041;22;20541;-48
2021/05/08 11:49:37;;;;;;;3.28;1.02;;;10.20;99.90;;;;;;13085833;22;20037;-48
2021/05/08 11:54:40;;;;;;;2.15;1.00;;;10.10;99.90;;;;;;13087534;22;20014;-48
2021/05/08 11:59:40;;;;;;;3.35;1.17;;;10.10;99.90;;;;;;13088330;22;20014;-48
2021/05/08 12:04:45;;;;;;;12.73;1.63;;;10.20;99.90;;;;;;13078465;22;20011;-48
2021/05/08 12:09:46;;;;;;;3.55;1.17;;;10.20;99.90;;;;;;13085924;22;20068;-48
2021/05/08 12:14:47;;;;;;;3.72;1.50;;;10.20;99.90;;;;;;13070586;22;20011;-48
2021/05/08 12:19:48;;;;;;;3.13;1.48;;;10.20;99.90;;;;;;13086247;22;20041;-48
2021/05/08 12:24:50;;;;;;;2.42;1.10;;;10.20;99.90;;;;;;13079923;22;20355;-48
2021/05/08 12:29:57;;;;;;;3.00;1.17;;;10.30;99.90;;;;;;13090242;22;20089;-48
2021/05/08 12:34:58;;;;;;;6.53;1.10;;;10.20;99.90;;;;;;13089004;22;20014;-49
2021/05/08 12:39:59;;;;;;;3.67;1.40;;;10.20;99.90;;;;;;13085728;22;20025;-49
2021/05/08 12:45:01;;;;;;;6.95;1.50;;;10.20;99.90;;;;;;13079744;22;20532;-49
2021/05/08 12:50:11;;;;;;;2.22;1.30;;;10.30;99.90;;;;;;13074079;22;20525;-49
2021/05/08 12:55:42;;;;;;;2.33;1.05;;;10.30;99.90;;;;;;13071361;22;20014;-49
2021/05/08 13:00:45;;;;;;;5.22;1.65;;;10.40;99.90;;;;;;13072305;22;20022;-49
2021/05/08 13:05:45;;;;;;;4.75;1.23;;;10.30;99.90;;;;;;13065693;22;20284;-49
2021/05/08 13:10:47;;;;;;;4.93;1.65;;;10.30;99.90;;;;;;13077158;22;20384;-48
2021/05/08 13:15:52;;;;;;;3.30;1.23;;;10.20;99.90;;;;;;13065835;22;20020;-49
2021/05/08 13:20:53;;;;;;;2.78;1.52;;;10.10;99.90;;;;;;13077622;22;20049;-49
2021/05/08 13:25:54;;;;;;;3.42;1.48;;;10.00;99.90;;;;;;13061145;22;20029;-49
2021/05/08 13:30:54;;;;;;;3.85;1.52;;;9.90;99.90;;;;;;13081727;22;20077;-49
2021/05/08 13:35:55;;;;;;;4.45;2.53;;;9.90;99.90;;;;;;13079529;22;20538;-49
2021/05/08 13:40:56;;;;;;;5.03;2.22;;;9.80;99.90;;;;;;13077370;22;20401;-50
2021/05/08 13:45:56;;;;;;;3.17;1.48;;;9.90;99.90;;;;;;13063587;22;20529;-49
2021/05/08 13:50:57;;;;;;;4.93;1.60;;;9.90;99.90;;;;;;13073940;22;20022;-50
2021/05/08 13:55:58;;;;;;;12.95;2.10;;;9.90;99.90;;;;;;13075430;22;20019;-50
2021/05/08 14:00:59;;;;;;;4.20;1.23;;;9.90;99.90;;;;;;13076009;22;20018;-50
2021/05/08 14:05:59;;;;;;;4.15;1.40;;;9.90;99.90;;;;;;13051405;22;20019;-50
2021/05/08 14:11:01;;;;;;;4.85;2.13;;;10.00;99.90;;;;;;13079749;22;20026;-50
2021/05/08 14:16:01;;;;;;;4.90;2.80;;;10.10;99.90;;;;;;13083011;22;20098;-50
2021/05/08 14:21:02;;;;;;;3.45;1.75;;;10.20;99.90;;;;;;13067272;22;20024;-50
2021/05/08 14:26:03;;;;;;;3.33;1.52;;;10.40;99.90;;;;;;13054949;22;20325;-50
2021/05/08 14:31:03;;;;;;;5.70;1.73;;;10.50;99.90;;;;;;13059889;22;20073;-50
2021/05/08 14:36:04;;;;;;;4.97;2.53;;;10.60;99.90;;;;;;13047415;22;20068;-50
2021/05/08 14:41:05;;;;;;;5.38;1.50;;;10.70;99.90;;;;;;13057685;22;20018;-51
2021/05/08 14:46:06;;;;;;;4.88;1.85;;;10.80;99.90;;;;;;13067843;22;20025;-51
2021/05/08 14:51:07;;;;;;;3.63;2.03;;;10.90;99.90;;;;;;13064126;22;20070;-51
2021/05/08 14:56:07;;;;;;;3.88;1.40;;;11.00;99.90;;;;;;13063392;22;20025;-51
2021/05/08 15:01:08;;;;;;;5.28;2.10;;;11.10;99.90;;;;;;13055057;22;20465;-51
2021/05/08 15:06:09;;;;;;;8.60;2.15;;;11.30;99.90;;;;;;13053154;22;20019;-51
2021/05/08 15:11:12;;;;;;;4.40;1.70;;;11.40;99.90;;;;;;13064585;22;20023;-51
2021/05/08 15:16:13;;;;;;;4.63;1.55;;;11.60;99.90;;;;;;13076768;22;20060;-51
2021/05/08 15:21:14;;;;;;;4.53;1.63;;;11.70;99.90;;;;;;13074623;22;20291;-51
2021/05/08 15:26:14;;;;;;;9.52;3.00;;;12.00;99.90;;;;;;13080623;22;20018;-51
2021/05/08 15:31:16;;;;;;;5.53;1.98;;;12.10;99.90;;;;;;13080660;22;20007;-51
2021/05/08 15:36:16;;;;;;;3.97;1.85;;;12.40;99.90;;;;;;13078141;22;20462;-51
2021/05/08 15:41:21;;;;;;;4.30;1.77;;;12.50;99.90;;;;;;13071487;22;20442;-51
2021/05/08 15:46:26;;;;;;;3.17;1.60;;;12.60;99.90;;;;;;13074178;22;20023;-51
2021/05/08 15:51:27;;;;;;;3.05;1.35;;;12.80;99.90;;;;;;13076444;22;20531;-51
2021/05/08 15:56:28;;;;;;;3.95;1.98;;;13.00;99.90;;;;;;13072616;22;20037;-50
2021/05/08 16:01:29;;;;;;;6.05;2.15;;;13.10;99.90;;;;;;13045930;22;20524;-51
2021/05/08 16:06:29;;;;;;;4.22;2.22;;;13.40;99.90;;;;;;13076842;22;20014;-51
2021/05/08 16:11:30;;;;;;;3.35;1.17;;;13.60;99.90;;;;;;13075829;22;20490;-51
2021/05/08 16:16:32;;;;;;;2.55;1.52;;;13.80;99.90;;;;;;13074769;22;20011;-51
2021/05/08 16:21:33;;;;;;;4.18;1.58;;;13.90;99.90;;;;;;13075640;22;20007;-50
2021/05/08 16:26:36;;;;;;;3.20;1.73;;;14.10;99.90;;;;;;13074030;22;20369;-51
2021/05/08 16:31:37;;;;;;;3.22;1.40;;;14.20;99.90;;;;;;13075301;22;20022;-51
2021/05/08 16:36:38;;;;;;;2.80;1.27;;;14.40;99.90;;;;;;13075187;22;20019;-51
2021/05/08 16:41:42;;;;;;;4.72;1.58;;;14.50;99.90;;;;;;13075998;22;20015;-51
2021/05/08 16:46:42;;;;;;;1.75;1.02;;;14.60;99.90;;;;;;13070034;22;20404;-51
2021/05/08 16:51:43;;;;;;;3.63;2.13;;;14.70;99.90;;;;;;13072034;22;20026;-51
2021/05/08 16:56:43;;;;;;;4.13;1.77;;;14.80;99.90;;;;;;13070438;22;20095;-51
2021/05/08 17:01:44;;;;;;;4.18;1.90;;;15.30;99.90;;;;;;13072293;22;20015;-51
2021/05/08 17:06:45;;;;;;;4.78;1.25;;;15.60;99.90;;;;;;13071833;22;20015;-51
2021/05/08 17:11:46;;;;;;;3.75;1.83;;;15.80;99.90;;;;;;13074661;22;20011;-51
2021/05/08 17:16:46;;;;;;;4.32;1.33;;;15.90;99.90;;;;;;13073296;22;20438;-51
2021/05/08 17:21:47;;;;;;;2.60;1.20;;;15.90;99.90;;;;;;13070053;22;20022;-51
2021/05/08 17:26:48;;;;;;;3.58;1.75;;;15.80;99.90;;;;;;13071348;22;20023;-51
2021/05/08 17:31:48;;;;;;;3.72;1.70;;;15.70;99.90;;;;;;13074738;22;20067;-51
2021/05/08 17:36:50;;;;;;;3.22;1.38;;;15.80;99.90;;;;;;13074315;22;20476;-51
2021/05/08 17:41:51;;;;;;;4.55;2.03;;;15.80;99.90;;;;;;13071072;22;20042;-51
2021/05/08 17:46:59;;;;;;;3.03;1.60;;;15.70;99.90;;;;;;13071631;22;20133;-51
2021/05/08 17:52:00;;;;;;;3.75;1.67;;;15.70;99.90;;;;;;13070743;22;20021;-51
2021/05/08 17:57:01;;;;;;;3.47;1.40;;;15.80;99.90;;;;;;13073222;22;20025;-51
2021/05/08 18:02:07;;;;;;;4.00;1.67;;;15.90;99.90;;;;;;13075509;22;20013;-51
2021/05/08 18:07:08;;;;;;;3.30;1.60;;;16.00;99.90;;;;;;13075869;22;20015;-51
2021/05/08 18:12:08;;;;;;;11.02;2.40;;;15.90;99.90;;;;;;13081139;22;20064;-51
2021/05/08 18:17:09;;;;;;;2.13;1.23;;;15.90;99.90;;;;;;13087323;22;20018;-51
2021/05/08 18:22:10;;;;;;;3.42;1.85;;;15.90;99.90;;;;;;13085081;22;20015;-51
2021/05/08 18:27:10;;;;;;;3.80;1.52;;;16.00;99.90;;;;;;13084304;22;20068;-51
2021/05/08 18:32:11;;;;;;;4.53;1.58;;;16.00;99.90;;;;;;13086289;22;20389;-51
2021/05/08 18:38:10;;;;;;;4.85;2.53;;;16.00;99.90;;;;;;13096114;22;20015;-51
2021/05/08 18:43:21;;;;;;;2.22;1.30;;;16.00;99.90;;;;;;13051128;22;20292;-51
2021/05/08 18:48:22;;;;;;;4.63;1.33;;;16.00;99.90;;;;;;13082261;22;20022;-51
2021/05/08 18:53:23;;;;;;;2.70;1.10;;;15.90;99.90;;;;;;13080516;22;20532;-51
2021/05/08 18:58:27;;;;;;;5.60;1.90;;;16.00;99.90;;;;;;13087939;22;20002;-51
2021/05/08 19:03:27;;;;;;;3.95;1.70;;;15.90;99.90;;;;;;13081835;22;20519;-51
2021/05/08 19:08:28;;;;;;;3.97;1.83;;;15.90;99.90;;;;;;13079007;22;20093;-51
2021/05/08 19:13:29;;;;;;;4.28;1.52;;;15.90;99.90;;;;;;13083148;22;20010;-51
2021/05/08 19:18:32;;;;;;;2.50;1.33;;;15.90;99.90;;;;;;13088712;22;20006;-51
2021/05/08 19:23:36;;;;;;;2.55;1.30;;;15.90;99.90;;;;;;13081896;22;20026;-51
2021/05/08 19:28:36;;;;;;;3.08;1.45;;;15.90;99.90;;;;;;13072987;22;20020;-51
2021/05/08 19:33:40;;;;;;;4.93;1.70;;;15.90;99.90;;;;;;13058143;22;20015;-51
2021/05/08 19:38:42;;;;;;;5.35;1.30;;;15.90;99.90;;;;;;13080138;22;20018;-51
2021/05/08 19:43:43;;;;;;;8.95;1.65;;;15.90;99.90;;;;;;13082978;22;20011;-51
2021/05/08 19:48:48;;;;;;;2.35;1.02;;;15.90;99.90;;;;;;13057104;22;20350;-51
2021/05/08 19:53:54;;;;;;;4.88;1.90;;;15.90;99.90;;;;;;13083297;22;20042;-51
2021/05/08 19:58:55;;;;;;;3.33;1.52;;;15.90;99.90;;;;;;13085355;22;20043;-51
2021/05/08 20:03:55;;;;;;;3.38;1.20;;;15.90;99.90;;;;;;13068871;22;20027;-51
2021/05/08 20:08:56;;;;;;;5.38;1.65;;;16.00;99.90;;;;;;13080166;22;20018;-51
2021/05/08 20:13:57;;;;;;;6.07;1.55;;;16.00;99.90;;;;;;13082126;22;20097;-51
2021/05/08 20:18:57;;;;;;;5.68;1.65;;;16.00;99.90;;;;;;13083852;22;20015;-51
2021/05/08 20:23:59;;;;;;;4.05;1.63;;;16.00;99.90;;;;;;13087785;22;20450;-51
2021/05/08 20:29:02;;;;;;;5.85;1.30;;;16.00;99.90;;;;;;13082154;22;20022;-51
2021/05/08 20:40:24;;;;;;;2.17;1.35;;;16.00;99.90;;;;;;13071098;22;20014;-51
2021/05/08 20:45:28;;;;;;;3.08;1.55;;;15.90;99.90;;;;;;13073313;22;20021;-51
2021/05/08 20:50:29;;;;;;;3.10;1.60;;;16.00;99.90;;;;;;13072278;22;20018;-51
2021/05/08 20:55:30;;;;;;;3.42;1.73;;;15.90;99.90;;;;;;13053800;22;20556;-51
2021/05/08 21:00:31;;;;;;;2.30;1.00;;;15.90;99.90;;;;;;13083041;22;20015;-51
2021/05/08 21:05:31;;;;;;;3.45;1.50;;;16.00;99.90;;;;;;13054751;22;20015;-51
2021/05/08 21:10:38;;;;;;;4.32;1.50;;;16.00;99.90;;;;;;13081544;22;20038;-51
2021/05/08 21:15:41;;;;;;;4.05;1.20;;;15.90;99.90;;;;;;13087835;22;20007;-51
2021/05/08 21:20:41;;;;;;;4.22;1.40;;;15.90;99.90;;;;;;13086870;22;20341;-51
2021/05/08 21:25:43;;;;;;;3.20;1.58;;;15.90;99.90;;;;;;13098786;22;20018;-51
2021/05/08 21:30:53;;;;;;;3.25;1.45;;;15.90;99.90;;;;;;13075270;22;20348;-51
2021/05/08 21:36:01;;;;;;;2.65;1.15;;;15.80;99.90;;;;;;13090876;22;20018;-51
2021/05/08 21:41:16;;;;;;;4.53;1.13;;;15.80;99.90;;;;;;13076857;22;20005;-51
2021/05/08 21:46:48;;;;;;;2.72;1.35;;;15.80;99.90;;;;;;13092549;22;20018;-51
2021/05/08 21:52:50;;;;;;;2.40;1.20;;;15.70;99.90;;;;;;12871440;22;20490;-50
2021/05/08 21:58:01;;;;;;;2.28;1.13;;;15.60;99.90;;;;;;12919136;22;20317;-51
2021/05/08 22:03:22;;;;;;;3.88;1.02;;;15.70;99.90;;;;;;13029897;22;20015;-51
2021/05/08 22:08:54;;;;;;;2.10;1.05;;;15.60;99.90;;;;;;12964150;22;20039;-51
2021/05/08 22:14:07;;;;;;;3.78;1.65;;;15.60;99.90;;;;;;12956192;22;20065;-51
2021/05/08 22:19:37;;;;;;;4.13;1.58;;;15.50;99.90;;;;;;12990405;22;20474;-51
2021/05/08 22:25:20;;;;;;;3.30;1.40;;;15.40;99.90;;;;;;12909360;22;20099;-51
2021/05/08 22:37:04;;;;;;;5.07;1.63;;;15.10;99.90;;;;;;12878241;22;20029;-51
2021/05/08 22:42:22;;;;;;;4.20;1.60;;;15.10;99.90;;;;;;13015591;22;20015;-51
2021/05/08 22:47:36;;;;;;;4.43;1.58;;;14.90;99.90;;;;;;13017579;22;20482;-51
2021/05/08 23:04:06;;;;;;;3.45;1.35;;;14.70;99.90;;;;;;12982633;22;20030;-51
2021/05/08 23:09:19;;;;;;;2.80;1.55;;;14.50;99.90;;;;;;13111182;22;20034;-51
2021/05/08 23:14:38;;;;;;;5.78;1.20;;;14.50;99.90;;;;;;13058073;22;20518;-51
2021/05/08 23:20:16;;;;;;;2.95;1.15;;;14.40;99.90;;;;;;13088734;22;20010;-51
2021/05/08 23:32:05;;;;;;;4.65;1.27;;;14.30;99.90;;;;;;13030616;22;20432;-50
2021/05/08 23:37:35;;;;;;;4.70;1.90;;;14.20;99.90;;;;;;13004638;22;20042;-51
2021/05/08 23:49:23;;;;;;;2.70;0.98;;;14.20;99.90;;;;;;12658005;22;20019;-50
2021/05/08 23:55:01;;;;;;;;;;;;;;;;;;;;;
